createdAt,value
2022-12-16T00:02:05.414Z,99478.50
2022-12-16T00:04:32.256Z,99483.69
2022-12-16T00:07:01.371Z,99474.44
2022-12-16T00:09:29.373Z,99472.13
2022-12-16T00:11:57.177Z,99472.19
2022-12-16T00:14:24.463Z,99474.06
2022-12-16T00:16:51.161Z,99489.59
2022-12-16T00:19:18.432Z,99476.84
2022-12-16T00:21:45.073Z,99474.38
2022-12-16T00:24:11.856Z,99479.69
2022-12-16T00:26:38.480Z,99481.44
2022-12-16T00:29:07.698Z,99472.00
2022-12-16T00:31:34.378Z,99467.66
2022-12-16T00:34:00.991Z,99459.16
2022-12-16T00:36:27.602Z,99460.28
2022-12-16T00:38:54.196Z,99461.28
2022-12-16T00:41:21.169Z,99462.31
2022-12-16T00:43:49.638Z,99460.81
2022-12-16T00:46:17.649Z,99456.72
2022-12-16T00:48:44.260Z,99448.16
2022-12-16T00:51:10.918Z,99447.53
2022-12-16T00:53:38.605Z,99444.06
2022-12-16T00:56:10.229Z,99436.44
2022-12-16T00:58:38.695Z,99440.84
2022-12-16T01:01:08.267Z,99438.47
2022-12-16T01:03:37.311Z,99430.03
2022-12-16T01:06:18.145Z,99428.53
2022-12-16T01:08:50.744Z,99431.22
2022-12-16T01:11:20.206Z,99433.88
2022-12-16T01:13:52.044Z,99415.06
2022-12-16T01:16:19.817Z,99411.03
2022-12-16T01:18:46.649Z,99405.19
2022-12-16T01:21:15.269Z,99406.25
2022-12-16T01:23:41.840Z,99415.78
2022-12-16T01:26:15.122Z,99417.69
2022-12-16T01:28:41.791Z,99415.28
2022-12-16T01:31:08.399Z,99416.47
2022-12-16T01:33:35.718Z,99420.84
2022-12-16T01:36:05.637Z,99416.81
2022-12-16T01:38:34.239Z,99417.81
2022-12-16T01:41:01.297Z,99413.69
2022-12-16T01:43:32.756Z,99410.41
2022-12-16T01:46:20.437Z,99412.25
2022-12-16T01:48:54.881Z,99421.31
2022-12-16T01:51:37.506Z,99412.63
2022-12-16T01:54:18.919Z,99407.66
2022-12-16T01:56:57.478Z,99412.88
2022-12-16T01:59:26.353Z,99412.94
2022-12-16T02:01:53.133Z,99398.56
2022-12-16T02:04:19.835Z,99396.97
2022-12-16T02:06:46.504Z,99396.22
2022-12-16T02:09:15.571Z,99404.09
2022-12-16T02:12:14.617Z,99399.88
2022-12-16T02:15:05.873Z,99393.97
2022-12-16T02:17:38.353Z,99388.91
2022-12-16T02:20:42.104Z,99386.53
2022-12-16T02:23:27.429Z,99372.75
2022-12-16T02:26:31.587Z,99380.53
2022-12-16T02:29:25.681Z,99386.78
2022-12-16T02:32:00.781Z,99374.09
2022-12-16T02:34:53.397Z,99362.97
2022-12-16T02:37:35.804Z,99365.88
2022-12-16T02:40:08.131Z,99366.66
2022-12-16T02:42:42.919Z,99367.69
2022-12-16T02:45:15.843Z,99363.56
2022-12-16T02:47:42.495Z,99365.34
2022-12-16T02:50:30.835Z,99368.94
2022-12-16T02:52:59.205Z,99364.16
2022-12-16T02:55:34.365Z,99361.63
2022-12-16T02:58:15.789Z,99357.31
2022-12-16T03:01:10.824Z,99368.56
2022-12-16T03:04:03.867Z,99363.50
2022-12-16T03:06:33.790Z,99364.44
2022-12-16T03:09:05.777Z,99367.16
2022-12-16T03:11:33.440Z,99359.38
2022-12-16T03:16:34.903Z,99353.41
2022-12-16T03:19:08.349Z,99349.22
2022-12-16T03:21:43.450Z,99341.44
2022-12-16T03:24:13.906Z,99344.00
2022-12-16T03:26:59.058Z,99338.88
2022-12-16T03:29:41.704Z,99326.16
2022-12-16T03:32:29.671Z,99319.38
2022-12-16T03:35:18.269Z,99319.31
2022-12-16T03:37:47.166Z,99322.78
2022-12-16T03:40:15.227Z,99328.00
2022-12-16T03:42:43.860Z,99321.22
2022-12-16T03:45:19.372Z,99324.75
2022-12-16T03:47:50.928Z,99332.53
2022-12-16T03:50:21.741Z,99330.91
2022-12-16T03:52:48.327Z,99330.09
2022-12-16T03:55:14.941Z,99329.22
2022-12-16T03:57:42.202Z,99338.69
2022-12-16T04:00:10.471Z,99325.81
2022-12-16T04:02:39.781Z,99334.50
2022-12-16T04:05:07.054Z,99336.19
2022-12-16T04:07:33.662Z,99323.41
2022-12-16T04:10:02.370Z,99328.69
2022-12-16T04:12:55.085Z,99337.16
2022-12-16T04:15:41.455Z,99343.91
2022-12-16T04:18:35.429Z,99342.22
2022-12-16T04:21:21.519Z,99340.41
2022-12-16T04:24:13.969Z,99347.22
2022-12-16T04:26:59.184Z,99354.13
2022-12-16T04:29:25.780Z,99351.63
2022-12-16T04:31:52.960Z,99350.84
2022-12-16T04:34:28.064Z,99352.66
2022-12-16T04:37:21.599Z,99348.44
2022-12-16T04:40:07.217Z,99351.03
2022-12-16T04:42:52.268Z,99347.38
2022-12-16T04:45:37.519Z,99341.41
2022-12-16T04:48:22.777Z,99351.69
2022-12-16T04:51:09.219Z,99352.59
2022-12-16T04:53:54.180Z,99349.13
2022-12-16T04:56:39.246Z,99361.13
2022-12-16T04:59:24.548Z,99360.22
2022-12-16T05:02:11.151Z,99364.63
2022-12-16T05:04:56.463Z,99363.81
2022-12-16T05:07:41.513Z,99363.03
2022-12-16T05:10:27.362Z,99362.19
2022-12-16T05:13:13.613Z,99358.72
2022-12-16T05:15:59.439Z,99351.69
2022-12-16T05:18:45.014Z,99359.41
2022-12-16T05:21:30.337Z,99351.75
2022-12-16T05:24:15.707Z,99343.97
2022-12-16T05:27:00.821Z,99350.94
2022-12-16T05:29:45.894Z,99351.84
2022-12-16T05:32:30.817Z,99352.81
2022-12-16T05:35:15.985Z,99340.81
2022-12-16T05:38:01.272Z,99348.44
2022-12-16T05:40:46.317Z,99346.03
2022-12-16T05:43:31.930Z,99345.09
2022-12-16T05:46:17.623Z,99345.72
2022-12-16T05:49:02.755Z,99335.31
2022-12-16T05:51:48.313Z,99331.94
2022-12-16T05:54:33.231Z,99327.59
2022-12-16T05:57:18.467Z,99321.88
2022-12-16T06:00:03.468Z,99313.13
2022-12-16T06:02:48.580Z,99313.84
2022-12-16T06:05:33.987Z,99310.41
2022-12-16T06:08:18.908Z,99301.91
2022-12-16T06:11:04.037Z,99306.00
2022-12-16T06:13:48.971Z,99314.69
2022-12-16T06:16:34.407Z,99308.72
2022-12-16T06:19:19.805Z,99316.50
2022-12-16T06:22:04.761Z,99319.00
2022-12-16T06:24:50.061Z,99324.44
2022-12-16T06:27:35.004Z,99324.38
2022-12-16T06:30:24.069Z,99328.69
2022-12-16T06:33:09.041Z,99333.00
2022-12-16T06:35:54.251Z,99331.41
2022-12-16T06:38:39.272Z,99341.84
2022-12-16T06:41:24.538Z,99349.63
2022-12-16T06:44:09.838Z,99349.00
2022-12-16T06:46:54.826Z,99327.78
2022-12-16T06:49:40.329Z,99324.53
2022-12-16T06:52:25.733Z,99331.50
2022-12-16T06:55:10.585Z,99327.56
2022-12-16T06:57:56.163Z,99330.19
2022-12-16T07:00:41.100Z,99338.81
2022-12-16T07:03:26.640Z,99346.09
2022-12-16T07:06:13.167Z,99348.47
2022-12-16T07:08:58.762Z,99356.97
2022-12-16T07:11:44.985Z,99342.44
2022-12-16T07:14:30.017Z,99333.97
2022-12-16T07:17:17.404Z,99337.97
2022-12-16T07:20:02.862Z,99346.47
2022-12-16T07:22:49.288Z,99341.00
2022-12-16T07:25:38.026Z,99348.72
2022-12-16T07:28:23.538Z,99343.72
2022-12-16T07:31:08.583Z,99349.50
2022-12-16T07:33:53.778Z,99346.13
2022-12-16T07:36:39.077Z,99362.44
2022-12-16T07:39:24.430Z,99358.09
2022-12-16T07:42:09.796Z,99364.88
2022-12-16T07:44:54.724Z,99373.69
2022-12-16T07:47:40.088Z,99372.88
2022-12-16T07:50:25.736Z,99376.84
2022-12-16T07:53:19.113Z,99374.50
2022-12-16T07:56:04.682Z,99377.06
2022-12-16T07:58:50.361Z,99375.22
2022-12-16T08:01:35.919Z,99380.59
2022-12-16T08:04:21.428Z,99376.34
2022-12-16T08:07:06.473Z,99393.50
2022-12-16T08:09:51.743Z,99387.13
2022-12-16T08:12:36.847Z,99388.16
2022-12-16T08:15:23.319Z,99380.44
2022-12-16T08:18:13.004Z,99368.94
2022-12-16T08:20:58.033Z,99360.09
2022-12-16T08:23:43.228Z,99363.53
2022-12-16T08:26:28.750Z,99372.72
2022-12-16T08:29:42.546Z,99375.59
2022-12-16T08:32:19.264Z,99375.13
2022-12-16T08:35:04.241Z,99387.91
2022-12-16T08:37:49.527Z,99390.72
2022-12-16T08:40:35.983Z,99398.78
2022-12-16T08:43:22.671Z,99388.94
2022-12-16T08:46:12.192Z,99377.78
2022-12-16T08:48:57.420Z,99389.81
2022-12-16T08:51:42.770Z,99409.22
2022-12-16T08:54:27.913Z,99421.25
2022-12-16T08:57:13.628Z,99417.06
2022-12-16T08:59:59.083Z,99417.34
2022-12-16T09:02:44.259Z,99416.66
2022-12-16T09:05:29.735Z,99415.13
2022-12-16T09:08:22.231Z,99413.69
2022-12-16T09:11:08.044Z,99426.50
2022-12-16T09:13:53.645Z,99439.72
2022-12-16T09:16:39.811Z,99444.06
2022-12-16T09:19:24.947Z,99446.63
2022-12-16T09:22:10.165Z,99451.19
2022-12-16T09:24:56.094Z,99455.06
2022-12-16T09:27:41.049Z,99453.38
2022-12-16T09:30:27.596Z,99441.25
2022-12-16T09:33:12.531Z,99445.50
2022-12-16T09:35:57.862Z,99446.19
2022-12-16T09:38:43.081Z,99445.78
2022-12-16T09:42:09.211Z,99441.84
2022-12-16T09:45:03.231Z,99458.78
2022-12-16T09:47:52.979Z,99450.28
2022-12-16T09:50:44.615Z,99452.16
2022-12-16T09:53:34.179Z,99456.34
2022-12-16T09:56:23.596Z,99452.53
2022-12-16T09:59:21.790Z,99443.81
2022-12-16T10:02:09.604Z,99435.44
2022-12-16T10:04:55.145Z,99454.50
2022-12-16T10:07:41.686Z,99450.25
2022-12-16T10:10:58.387Z,99441.16
2022-12-16T10:13:52.538Z,99435.41
2022-12-16T10:17:01.232Z,99430.88
2022-12-16T10:20:14.071Z,99425.66
2022-12-16T10:23:18.089Z,99447.78
2022-12-16T10:26:15.283Z,99448.34
2022-12-16T10:29:06.201Z,99442.31
2022-12-16T10:31:52.351Z,99435.00
2022-12-16T10:34:43.466Z,99448.22
2022-12-16T10:37:35.251Z,99441.63
2022-12-16T10:40:21.461Z,99441.09
2022-12-16T10:43:22.749Z,99444.59
2022-12-16T10:46:12.359Z,99455.59
2022-12-16T10:48:57.832Z,99461.75
2022-12-16T10:51:47.414Z,99454.19
2022-12-16T10:54:54.187Z,99451.88
2022-12-16T10:57:45.663Z,99452.94
2022-12-16T11:00:37.628Z,99471.50
2022-12-16T11:03:44.312Z,99477.41
2022-12-16T11:06:34.757Z,99474.06
2022-12-16T11:09:46.778Z,99473.56
2022-12-16T11:12:38.811Z,99480.25
2022-12-16T11:15:41.612Z,99469.72
2022-12-16T11:18:37.929Z,99470.94
2022-12-16T11:21:24.658Z,99461.97
2022-12-16T11:24:28.205Z,99455.19
2022-12-16T11:27:19.095Z,99462.16
2022-12-16T11:30:16.222Z,99464.88
2022-12-16T11:33:09.256Z,99463.00
2022-12-16T11:35:59.287Z,99457.38
2022-12-16T11:39:01.842Z,99459.34
2022-12-16T11:41:50.545Z,99451.25
2022-12-16T11:44:44.701Z,99433.16
2022-12-16T11:47:55.910Z,99442.66
2022-12-16T11:50:44.352Z,99427.13
2022-12-16T11:53:45.616Z,99414.81
2022-12-16T11:56:38.376Z,99414.97
2022-12-16T11:59:55.349Z,99420.69
2022-12-16T12:02:53.598Z,99431.09
2022-12-16T12:05:49.100Z,99440.88
2022-12-16T12:08:58.736Z,99447.69
2022-12-16T12:11:50.325Z,99467.84
2022-12-16T12:15:12.682Z,99469.50
2022-12-16T12:18:14.874Z,99464.56
2022-12-16T12:21:14.700Z,99467.25
2022-12-16T12:24:19.407Z,99468.00
2022-12-16T12:27:24.831Z,99472.31
2022-12-16T12:30:19.899Z,99480.66
2022-12-16T12:33:14.011Z,99490.84
2022-12-16T12:36:09.999Z,99488.94
2022-12-16T12:39:22.324Z,99495.19
2022-12-16T12:42:35.575Z,99492.25
2022-12-16T12:45:49.239Z,99499.59
2022-12-16T12:48:43.169Z,99488.97
2022-12-16T12:51:49.848Z,99489.81
2022-12-16T12:54:52.047Z,99491.03
2022-12-16T12:57:44.562Z,99476.25
2022-12-16T13:00:44.603Z,99475.16
2022-12-16T13:03:48.552Z,99485.47
2022-12-16T13:06:35.548Z,99490.81
2022-12-16T13:09:23.489Z,99485.63
2022-12-16T13:12:27.190Z,99485.41
2022-12-16T13:15:29.321Z,99490.25
2022-12-16T13:18:20.609Z,99514.31
2022-12-16T13:21:14.014Z,99508.34
2022-12-16T13:24:02.367Z,99514.53
2022-12-16T13:26:50.412Z,99519.47
2022-12-16T13:29:41.955Z,99522.19
2022-12-16T13:32:26.939Z,99527.59
2022-12-16T13:35:29.446Z,99511.88
2022-12-16T13:38:18.157Z,99517.22
2022-12-16T13:41:16.903Z,99526.22
2022-12-16T13:44:06.910Z,99544.34
2022-12-16T13:47:11.928Z,99545.78
2022-12-16T13:50:04.676Z,99545.63
2022-12-16T13:52:58.830Z,99554.25
2022-12-16T13:55:52.116Z,99564.53
2022-12-16T13:58:59.711Z,99560.91
2022-12-16T14:01:56.976Z,99566.41
2022-12-16T14:05:07.012Z,99569.25
2022-12-16T14:07:54.200Z,99573.34
2022-12-16T14:10:46.976Z,99560.53
2022-12-16T14:13:39.923Z,99563.88
2022-12-16T14:16:51.948Z,99553.63
2022-12-16T14:19:50.596Z,99567.25
2022-12-16T14:23:17.896Z,99582.84
2022-12-16T14:26:16.193Z,99596.75
2022-12-16T14:29:05.469Z,99598.34
2022-12-16T14:31:55.256Z,99608.72
2022-12-16T14:34:42.528Z,99607.88
2022-12-16T14:37:35.702Z,99618.16
2022-12-16T14:40:22.518Z,99613.81
2022-12-16T14:43:13.108Z,99619.03
2022-12-16T14:45:58.635Z,99631.13
2022-12-16T14:48:50.960Z,99633.63
2022-12-16T14:51:47.099Z,99630.22
2022-12-16T14:54:42.549Z,99636.94
2022-12-16T14:57:34.669Z,99642.09
2022-12-16T15:00:31.336Z,99642.09
2022-12-16T15:03:35.658Z,99653.41
2022-12-16T15:06:28.979Z,99658.53
2022-12-16T15:09:20.564Z,99655.06
2022-12-16T15:12:06.549Z,99661.13
2022-12-16T15:14:55.301Z,99663.63
2022-12-16T15:18:10.495Z,99662.00
2022-12-16T15:21:06.968Z,99675.69
2022-12-16T15:23:53.662Z,99675.81
2022-12-16T15:26:45.508Z,99667.44
2022-12-16T15:29:51.001Z,99669.16
2022-12-16T15:32:50.653Z,99671.72
2022-12-16T15:35:45.971Z,99689.88
2022-12-16T15:38:34.022Z,99698.66
2022-12-16T15:41:24.310Z,99695.09
2022-12-16T15:44:10.997Z,99699.50
2022-12-16T15:46:56.593Z,99713.13
2022-12-16T15:49:57.948Z,99717.41
2022-12-16T15:52:49.074Z,99719.25
2022-12-16T15:55:50.967Z,99718.28
2022-12-16T15:58:53.195Z,99723.66
2022-12-16T16:01:42.419Z,99735.81
2022-12-16T16:04:42.287Z,99735.97
2022-12-16T16:07:35.138Z,99732.50
2022-12-16T16:10:41.159Z,99745.28
2022-12-16T16:13:27.203Z,99747.09
2022-12-16T16:16:14.602Z,99753.91
2022-12-16T16:19:00.997Z,99754.91
2022-12-16T16:21:49.073Z,99755.75
2022-12-16T16:24:34.138Z,99756.66
2022-12-16T16:27:21.493Z,99752.41
2022-12-16T16:30:06.780Z,99750.59
2022-12-16T16:32:52.201Z,99752.31
2022-12-16T16:35:37.354Z,99765.28
2022-12-16T16:38:22.516Z,99769.59
2022-12-16T16:41:07.695Z,99771.22
2022-12-16T16:43:53.789Z,99772.78
2022-12-16T16:46:46.609Z,99777.03
2022-12-16T16:49:41.792Z,99790.72
2022-12-16T16:52:36.852Z,99808.75
2022-12-16T16:55:22.621Z,99793.28
2022-12-16T16:58:09.119Z,99810.28
2022-12-16T17:00:54.382Z,99803.59
2022-12-16T17:03:40.818Z,99808.66
2022-12-16T17:06:26.628Z,99812.06
2022-12-16T17:09:12.821Z,99813.00
2022-12-16T17:11:58.625Z,99812.94
2022-12-16T17:14:43.872Z,99820.72
2022-12-16T17:17:29.343Z,99825.16
2022-12-16T17:20:14.285Z,99812.13
2022-12-16T17:22:59.829Z,99813.59
2022-12-16T17:25:46.241Z,99815.38
2022-12-16T17:28:33.008Z,99827.50
2022-12-16T17:31:18.335Z,99816.97
2022-12-16T17:34:04.398Z,99822.69
2022-12-16T17:36:49.685Z,99838.41
2022-12-16T17:39:35.114Z,99842.66
2022-12-16T17:42:20.434Z,99846.97
2022-12-16T17:45:05.826Z,99847.72
2022-12-16T17:47:50.804Z,99855.59
2022-12-16T17:50:36.338Z,99852.06
2022-12-16T17:53:21.287Z,99852.22
2022-12-16T17:56:06.447Z,99858.34
2022-12-16T17:58:56.211Z,99850.69
2022-12-16T18:01:42.409Z,99846.84
2022-12-16T18:04:28.036Z,99842.28
2022-12-16T18:07:13.307Z,99857.22
2022-12-16T18:09:58.888Z,99846.69
2022-12-16T18:12:44.731Z,99853.53
2022-12-16T18:15:29.950Z,99851.13
2022-12-16T18:18:15.134Z,99851.91
2022-12-16T18:21:00.319Z,99856.94
2022-12-16T18:23:48.640Z,99867.22
2022-12-16T18:26:36.313Z,99863.75
2022-12-16T18:29:21.742Z,99867.16
2022-12-16T18:32:08.224Z,99875.81
2022-12-16T18:34:53.670Z,99875.66
2022-12-16T18:37:38.664Z,99877.28
2022-12-16T18:40:24.531Z,99873.63
2022-12-16T18:43:10.291Z,99881.63
2022-12-16T18:45:55.480Z,99875.66
2022-12-16T18:48:40.467Z,99878.78
2022-12-16T18:51:28.948Z,99884.03
2022-12-16T18:54:14.208Z,99877.94
2022-12-16T18:57:00.240Z,99885.06
2022-12-16T18:59:45.606Z,99874.84
2022-12-16T19:02:32.477Z,99874.72
2022-12-16T19:05:18.481Z,99876.38
2022-12-16T19:08:03.641Z,99884.28
2022-12-16T19:10:49.784Z,99888.53
2022-12-16T19:13:36.468Z,99896.16
2022-12-16T19:16:22.041Z,99904.63
2022-12-16T19:19:07.660Z,99897.94
2022-12-16T19:21:56.547Z,99913.38
2022-12-16T19:24:43.272Z,99901.78
2022-12-16T19:27:31.748Z,99912.81
2022-12-16T19:30:16.870Z,99921.06
2022-12-16T19:33:04.788Z,99926.31
2022-12-16T19:35:49.952Z,99930.72
2022-12-16T19:38:35.199Z,99936.84
2022-12-16T19:41:20.328Z,99944.59
2022-12-16T19:44:06.622Z,99947.31
2022-12-16T19:46:55.908Z,99948.09
2022-12-16T19:49:57.561Z,99960.25
2022-12-16T19:52:43.106Z,99959.66
2022-12-16T19:55:28.931Z,99966.38
2022-12-16T19:58:15.770Z,99963.91
2022-12-16T20:01:01.911Z,99968.22
2022-12-16T20:03:47.632Z,99973.47
2022-12-16T20:06:33.609Z,99972.66
2022-12-16T20:09:18.882Z,99979.34
2022-12-16T20:12:03.911Z,99976.94
2022-12-16T20:14:49.091Z,99986.06
2022-12-16T20:17:34.165Z,99989.28
2022-12-16T20:20:19.469Z,99989.91
2022-12-16T20:23:04.838Z,99992.41
2022-12-16T20:25:50.395Z,99995.97
2022-12-16T20:28:35.414Z,99995.31
2022-12-16T20:31:22.361Z,100003.03
2022-12-16T20:34:15.224Z,99996.81
2022-12-16T20:37:00.627Z,99998.09
2022-12-16T20:39:51.216Z,100006.44
2022-12-16T20:42:42.051Z,100010.31
2022-12-16T20:45:27.688Z,100017.00
2022-12-16T20:48:12.906Z,100023.91
2022-12-16T20:50:58.136Z,100018.59
2022-12-16T20:53:43.371Z,100023.84
2022-12-16T20:56:31.265Z,100034.94
2022-12-16T20:59:16.390Z,100035.50
2022-12-16T21:02:22.601Z,100042.41
2022-12-16T21:05:06.617Z,100043.53
2022-12-16T21:07:53.163Z,100054.81
2022-12-16T21:10:41.494Z,100050.38
2022-12-16T21:13:32.205Z,100056.56
2022-12-16T21:16:19.922Z,100052.06
2022-12-16T21:19:05.364Z,100054.13
2022-12-16T21:21:50.412Z,100058.53
2022-12-16T21:24:35.434Z,100069.03
2022-12-16T21:27:20.477Z,100071.50
2022-12-16T21:30:05.333Z,100071.50
2022-12-16T21:32:50.587Z,100070.78
2022-12-16T21:35:39.409Z,100066.06
2022-12-16T21:38:29.712Z,100073.41
2022-12-16T21:41:15.377Z,100069.53
2022-12-16T21:44:00.618Z,100069.88
2022-12-16T21:46:46.164Z,100084.41
2022-12-16T21:49:31.146Z,100086.19
2022-12-16T21:52:16.029Z,100084.66
2022-12-16T21:55:02.190Z,100098.63
2022-12-16T21:57:47.173Z,100103.94
2022-12-16T22:00:32.723Z,100104.72
2022-12-16T22:03:17.992Z,100104.91
2022-12-16T22:06:03.572Z,100113.34
2022-12-16T22:08:49.961Z,100126.28
2022-12-16T22:11:35.031Z,100120.09
2022-12-16T22:14:20.660Z,100118.28
2022-12-16T22:17:06.304Z,100127.22
2022-12-16T22:19:52.676Z,100123.59
2022-12-16T22:22:41.582Z,100121.03
2022-12-16T22:25:27.306Z,100121.56
2022-12-16T22:28:12.483Z,100121.66
2022-12-16T22:30:57.585Z,100123.84
2022-12-16T22:33:42.638Z,100128.50
2022-12-16T22:36:31.138Z,100124.97
2022-12-16T22:39:16.516Z,100130.91
2022-12-16T22:42:01.719Z,100123.19
2022-12-16T22:44:47.004Z,100133.28
2022-12-16T22:47:32.342Z,100146.13
2022-12-16T22:50:17.476Z,100152.84
2022-12-16T22:53:03.162Z,100155.59
2022-12-16T22:55:48.329Z,100161.44
2022-12-16T22:58:35.950Z,100157.28
2022-12-16T23:01:20.933Z,100150.16
2022-12-16T23:04:06.329Z,100155.31
2022-12-16T23:06:51.896Z,100156.22
2022-12-16T23:09:37.211Z,100153.44
2022-12-16T23:12:26.155Z,100152.75
2022-12-16T23:15:14.581Z,100152.66
2022-12-16T23:17:59.426Z,100156.22
2022-12-16T23:20:44.723Z,100159.59
2022-12-16T23:23:30.956Z,100163.03
2022-12-16T23:26:18.116Z,100167.50
2022-12-16T23:29:03.788Z,100183.59
2022-12-16T23:31:49.244Z,100180.25
2022-12-16T23:34:34.210Z,100182.97
2022-12-16T23:37:19.147Z,100182.22
2022-12-16T23:40:04.146Z,100194.34
2022-12-16T23:42:49.302Z,100189.13
2022-12-16T23:45:34.764Z,100189.22
2022-12-16T23:48:24.682Z,100187.34
2022-12-16T23:51:10.117Z,100188.91
2022-12-16T23:53:56.499Z,100195.16
2022-12-16T23:56:42.433Z,100197.53
2022-12-16T23:59:27.552Z,100201.56
